sensor_id;sensor_type;location;lat;lon;timestamp;pressure;altitude;pressure_sealevel;temperature;humidity
70976;BME280;58635;51.198;6.010;2023-05-03T00:00:06;102648.34;;;13.04;43.62
70976;BME280;58635;51.198;6.010;2023-05-03T00:02:33;102656.31;;;13.02;43.60
70976;BME280;58635;51.198;6.010;2023-05-03T00:05:03;102653.38;;;12.97;43.63
70976;BME280;58635;51.198;6.010;2023-05-03T00:07:29;102651.91;;;12.95;43.62
70976;BME280;58635;51.198;6.010;2023-05-03T00:09:54;102654.03;;;12.91;43.82
70976;BME280;58635;51.198;6.010;2023-05-03T00:12:20;102650.78;;;12.89;43.89
70976;BME280;58635;51.198;6.010;2023-05-03T00:14:45;102655.50;;;12.85;43.99
70976;BME280;58635;51.198;6.010;2023-05-03T00:17:11;102647.06;;;12.83;44.21
70976;BME280;58635;51.198;6.010;2023-05-03T00:19:37;102643.81;;;12.81;43.97
70976;BME280;58635;51.198;6.010;2023-05-03T00:22:03;102649.31;;;12.78;44.00
70976;BME280;58635;51.198;6.010;2023-05-03T00:24:29;102652.25;;;12.75;44.09
70976;BME280;58635;51.198;6.010;2023-05-03T00:26:54;102655.97;;;12.73;44.06
70976;BME280;58635;51.198;6.010;2023-05-03T00:29:20;102655.31;;;12.71;44.18
70976;BME280;58635;51.198;6.010;2023-05-03T00:31:47;102648.50;;;12.70;44.36
70976;BME280;58635;51.198;6.010;2023-05-03T00:34:12;102649.66;;;12.67;44.54
70976;BME280;58635;51.198;6.010;2023-05-03T00:36:38;102655.16;;;12.64;44.66
70976;BME280;58635;51.198;6.010;2023-05-03T00:39:03;102654.66;;;12.61;44.60
70976;BME280;58635;51.198;6.010;2023-05-03T00:41:28;102652.56;;;12.56;44.64
70976;BME280;58635;51.198;6.010;2023-05-03T00:43:54;102646.84;;;12.52;44.79
70976;BME280;58635;51.198;6.010;2023-05-03T00:46:19;102648.97;;;12.49;44.99
70976;BME280;58635;51.198;6.010;2023-05-03T00:48:47;102650.91;;;12.47;44.92
70976;BME280;58635;51.198;6.010;2023-05-03T00:51:14;102645.91;;;12.45;44.95
70976;BME280;58635;51.198;6.010;2023-05-03T00:53:43;102646.06;;;12.44;45.05
70976;BME280;58635;51.198;6.010;2023-05-03T00:56:09;102648.78;;;12.42;45.08
70976;BME280;58635;51.198;6.010;2023-05-03T00:58:35;102643.75;;;12.41;45.21
70976;BME280;58635;51.198;6.010;2023-05-03T01:01:04;102647.50;;;12.38;45.13
70976;BME280;58635;51.198;6.010;2023-05-03T01:03:31;102644.41;;;12.35;45.38
70976;BME280;58635;51.198;6.010;2023-05-03T01:06:27;102644.56;;;12.33;45.49
70976;BME280;58635;51.198;6.010;2023-05-03T01:09:11;102646.00;;;12.27;45.42
70976;BME280;58635;51.198;6.010;2023-05-03T01:14:45;102640.94;;;12.18;45.72
70976;BME280;58635;51.198;6.010;2023-05-03T01:17:13;102644.84;;;12.14;45.77
70976;BME280;58635;51.198;6.010;2023-05-03T01:19:50;102644.19;;;12.12;45.69
70976;BME280;58635;51.198;6.010;2023-05-03T01:25:05;102644.00;;;12.05;45.88
70976;BME280;58635;51.198;6.010;2023-05-03T01:27:32;102635.56;;;12.03;46.06
70976;BME280;58635;51.198;6.010;2023-05-03T01:29:57;102637.50;;;12.01;46.16
70976;BME280;58635;51.198;6.010;2023-05-03T01:32:30;102635.25;;;11.98;46.25
70976;BME280;58635;51.198;6.010;2023-05-03T01:35:17;102628.72;;;11.94;46.17
70976;BME280;58635;51.198;6.010;2023-05-03T01:37:45;102638.59;;;11.90;46.36
70976;BME280;58635;51.198;6.010;2023-05-03T01:40:13;102636.34;;;11.87;46.42
70976;BME280;58635;51.198;6.010;2023-05-03T01:42:41;102638.41;;;11.84;46.82
70976;BME280;58635;51.198;6.010;2023-05-03T01:45:07;102644.88;;;11.80;46.61
70976;BME280;58635;51.198;6.010;2023-05-03T01:47:32;102650.19;;;11.78;46.82
70976;BME280;58635;51.198;6.010;2023-05-03T01:49:58;102644.34;;;11.76;46.74
70976;BME280;58635;51.198;6.010;2023-05-03T01:52:25;102649.69;;;11.75;46.88
70976;BME280;58635;51.198;6.010;2023-05-03T01:54:51;102656.13;;;11.70;46.84
70976;BME280;58635;51.198;6.010;2023-05-03T01:57:16;102654.69;;;11.68;47.03
70976;BME280;58635;51.198;6.010;2023-05-03T01:59:41;102655.66;;;11.67;47.01
70976;BME280;58635;51.198;6.010;2023-05-03T02:02:07;102661.97;;;11.64;46.85
70976;BME280;58635;51.198;6.010;2023-05-03T02:04:32;102668.25;;;11.62;47.02
70976;BME280;58635;51.198;6.010;2023-05-03T02:06:57;102665.69;;;11.62;47.19
70976;BME280;58635;51.198;6.010;2023-05-03T02:09:24;102669.25;;;11.61;47.07
70976;BME280;58635;51.198;6.010;2023-05-03T02:11:49;102670.34;;;11.58;47.18
70976;BME280;58635;51.198;6.010;2023-05-03T02:14:15;102671.31;;;11.57;47.27
70976;BME280;58635;51.198;6.010;2023-05-03T02:16:40;102670.81;;;11.54;47.09
70976;BME280;58635;51.198;6.010;2023-05-03T02:19:06;102678.91;;;11.51;47.36
70976;BME280;58635;51.198;6.010;2023-05-03T02:21:33;102681.28;;;11.44;47.34
70976;BME280;58635;51.198;6.010;2023-05-03T02:23:58;102670.03;;;11.35;47.57
70976;BME280;58635;51.198;6.010;2023-05-03T02:26:24;102678.28;;;11.31;47.73
70976;BME280;58635;51.198;6.010;2023-05-03T02:28:50;102681.97;;;11.28;47.79
70976;BME280;58635;51.198;6.010;2023-05-03T02:31:15;102672.38;;;11.21;48.11
70976;BME280;58635;51.198;6.010;2023-05-03T02:33:41;102672.81;;;11.16;48.05
70976;BME280;58635;51.198;6.010;2023-05-03T02:36:06;102674.06;;;11.12;48.16
70976;BME280;58635;51.198;6.010;2023-05-03T02:38:32;102670.00;;;11.09;48.21
70976;BME280;58635;51.198;6.010;2023-05-03T02:40:58;102674.53;;;11.07;48.09
70976;BME280;58635;51.198;6.010;2023-05-03T02:43:24;102667.72;;;11.06;48.24
70976;BME280;58635;51.198;6.010;2023-05-03T02:45:49;102667.88;;;11.05;48.40
70976;BME280;58635;51.198;6.010;2023-05-03T02:48:15;102664.63;;;11.03;48.34
70976;BME280;58635;51.198;6.010;2023-05-03T02:50:41;102664.63;;;11.03;48.44
70976;BME280;58635;51.198;6.010;2023-05-03T02:53:06;102660.69;;;10.99;48.48
70976;BME280;58635;51.198;6.010;2023-05-03T02:55:31;102652.13;;;10.98;48.54
70976;BME280;58635;51.198;6.010;2023-05-03T02:57:57;102651.47;;;10.96;48.46
70976;BME280;58635;51.198;6.010;2023-05-03T03:00:22;102647.25;;;10.95;48.64
70976;BME280;58635;51.198;6.010;2023-05-03T03:02:48;102646.44;;;10.95;48.81
70976;BME280;58635;51.198;6.010;2023-05-03T03:05:14;102644.16;;;10.92;48.58
70976;BME280;58635;51.198;6.010;2023-05-03T03:07:39;102637.47;;;10.89;48.61
70976;BME280;58635;51.198;6.010;2023-05-03T03:10:06;102635.19;;;10.86;48.75
70976;BME280;58635;51.198;6.010;2023-05-03T03:12:34;102633.56;;;10.85;48.68
70976;BME280;58635;51.198;6.010;2023-05-03T03:14:59;102624.34;;;10.82;48.70
70976;BME280;58635;51.198;6.010;2023-05-03T03:17:25;102621.91;;;10.81;48.73
70976;BME280;58635;51.198;6.010;2023-05-03T03:19:50;102621.91;;;10.81;48.78
70976;BME280;58635;51.198;6.010;2023-05-03T03:22:16;102616.06;;;10.79;48.78
70976;BME280;58635;51.198;6.010;2023-05-03T03:24:41;102614.56;;;10.76;48.80
70976;BME280;58635;51.198;6.010;2023-05-03T03:27:07;102605.34;;;10.74;48.85
70976;BME280;58635;51.198;6.010;2023-05-03T03:29:33;102606.47;;;10.71;48.94
70976;BME280;58635;51.198;6.010;2023-05-03T03:31:59;102597.06;;;10.70;48.93
70976;BME280;58635;51.198;6.010;2023-05-03T03:34:25;102593.97;;;10.67;48.90
70976;BME280;58635;51.198;6.010;2023-05-03T03:36:50;102597.66;;;10.64;49.04
70976;BME280;58635;51.198;6.010;2023-05-03T03:39:15;102593.75;;;10.60;49.20
70976;BME280;58635;51.198;6.010;2023-05-03T03:41:41;102599.88;;;10.59;49.07
70976;BME280;58635;51.198;6.010;2023-05-03T03:44:06;102593.09;;;10.58;49.11
70976;BME280;58635;51.198;6.010;2023-05-03T03:46:32;102603.59;;;10.57;49.27
70976;BME280;58635;51.198;6.010;2023-05-03T03:48:57;102608.91;;;10.55;49.34
70976;BME280;58635;51.198;6.010;2023-05-03T03:51:22;102608.22;;;10.53;49.33
70976;BME280;58635;51.198;6.010;2023-05-03T03:53:48;102608.38;;;10.51;49.25
70976;BME280;58635;51.198;6.010;2023-05-03T03:56:13;102611.13;;;10.50;49.26
70976;BME280;58635;51.198;6.010;2023-05-03T03:58:39;102614.81;;;10.47;49.45
70976;BME280;58635;51.198;6.010;2023-05-03T04:01:04;102614.16;;;10.45;49.57
70976;BME280;58635;51.198;6.010;2023-05-03T04:03:30;102619.47;;;10.44;49.48
70976;BME280;58635;51.198;6.010;2023-05-03T04:05:55;102617.84;;;10.43;49.44
70976;BME280;58635;51.198;6.010;2023-05-03T04:08:21;102613.66;;;10.42;49.67
70976;BME280;58635;51.198;6.010;2023-05-03T04:10:46;102620.72;;;10.40;49.57
70976;BME280;58635;51.198;6.010;2023-05-03T04:13:12;102620.72;;;10.40;49.77
70976;BME280;58635;51.198;6.010;2023-05-03T04:15:37;102620.56;;;10.41;49.65
70976;BME280;58635;51.198;6.010;2023-05-03T04:18:03;102616.66;;;10.37;49.70
70976;BME280;58635;51.198;6.010;2023-05-03T04:20:28;102616.00;;;10.35;49.82
70976;BME280;58635;51.198;6.010;2023-05-03T04:22:53;102610.16;;;10.33;49.89
70976;BME280;58635;51.198;6.010;2023-05-03T04:25:19;102618.72;;;10.34;49.78
70976;BME280;58635;51.198;6.010;2023-05-03T04:27:45;102619.84;;;10.31;49.87
70976;BME280;58635;51.198;6.010;2023-05-03T04:30:11;102623.25;;;10.32;49.83
70976;BME280;58635;51.198;6.010;2023-05-03T04:32:39;102623.38;;;10.30;50.09
70976;BME280;58635;51.198;6.010;2023-05-03T04:35:05;102623.50;;;10.29;50.14
70976;BME280;58635;51.198;6.010;2023-05-03T04:37:35;102623.50;;;10.29;50.17
70976;BME280;58635;51.198;6.010;2023-05-03T04:40:01;102631.28;;;10.29;50.38
70976;BME280;58635;51.198;6.010;2023-05-03T04:42:29;102637.13;;;10.31;50.23
70976;BME280;58635;51.198;6.010;2023-05-03T04:44:54;102636.19;;;10.32;50.21
70976;BME280;58635;51.198;6.010;2023-05-03T04:47:20;102641.19;;;10.33;50.19
70976;BME280;58635;51.198;6.010;2023-05-03T04:49:45;102644.44;;;10.35;50.43
70976;BME280;58635;51.198;6.010;2023-05-03T04:52:11;102648.66;;;10.36;50.43
70976;BME280;58635;51.198;6.010;2023-05-03T04:54:36;102646.22;;;10.35;50.54
70976;BME280;58635;51.198;6.010;2023-05-03T04:57:02;102649.47;;;10.37;50.28
70976;BME280;58635;51.198;6.010;2023-05-03T04:59:27;102659.38;;;10.41;50.47
70976;BME280;58635;51.198;6.010;2023-05-03T05:01:53;102662.34;;;10.46;50.43
70976;BME280;58635;51.198;6.010;2023-05-03T05:04:18;102653.16;;;10.52;50.33
70976;BME280;58635;51.198;6.010;2023-05-03T05:06:43;102660.22;;;10.60;50.31
70976;BME280;58635;51.198;6.010;2023-05-03T05:09:21;102655.28;;;10.66;50.28
70976;BME280;58635;51.198;6.010;2023-05-03T05:11:46;102663.69;;;10.68;50.20
70976;BME280;58635;51.198;6.010;2023-05-03T05:14:12;102664.72;;;10.75;50.17
70976;BME280;58635;51.198;6.010;2023-05-03T05:16:37;102659.63;;;10.83;49.95
70976;BME280;58635;51.198;6.010;2023-05-03T05:19:03;102664.72;;;10.93;49.78
70976;BME280;58635;51.198;6.010;2023-05-03T05:21:28;102671.44;;;11.04;49.71
70976;BME280;58635;51.198;6.010;2023-05-03T05:23:54;102678.44;;;11.11;49.63
70976;BME280;58635;51.198;6.010;2023-05-03T05:26:19;102682.56;;;11.22;49.53
70976;BME280;58635;51.198;6.010;2023-05-03T05:28:45;102685.72;;;11.34;49.30
70976;BME280;58635;51.198;6.010;2023-05-03T05:31:10;102690.50;;;11.47;49.21
70976;BME280;58635;51.198;6.010;2023-05-03T05:33:35;102694.47;;;11.59;48.95
70976;BME280;58635;51.198;6.010;2023-05-03T05:36:01;102696.38;;;11.75;48.71
70976;BME280;58635;51.198;6.010;2023-05-03T05:38:26;102694.03;;;11.89;48.33
70976;BME280;58635;51.198;6.010;2023-05-03T05:40:52;102701.06;;;12.05;48.08
70976;BME280;58635;51.198;6.010;2023-05-03T05:43:17;102699.00;;;12.17;48.13
70976;BME280;58635;51.198;6.010;2023-05-03T05:45:43;102700.34;;;12.29;47.87
70976;BME280;58635;51.198;6.010;2023-05-03T05:48:08;102699.41;;;12.38;47.69
70976;BME280;58635;51.198;6.010;2023-05-03T05:50:35;102699.59;;;12.45;47.53
70976;BME280;58635;51.198;6.010;2023-05-03T05:53:00;102699.75;;;12.51;47.25
70976;BME280;58635;51.198;6.010;2023-05-03T05:55:26;102693.59;;;12.52;47.35
70976;BME280;58635;51.198;6.010;2023-05-03T05:57:51;102694.09;;;12.56;47.23
70976;BME280;58635;51.198;6.010;2023-05-03T06:00:17;102693.44;;;12.62;47.35
70976;BME280;58635;51.198;6.010;2023-05-03T06:02:43;102699.94;;;12.74;47.23
70976;BME280;58635;51.198;6.010;2023-05-03T06:05:10;102695.25;;;12.86;47.07
70976;BME280;58635;51.198;6.010;2023-05-03T06:07:36;102701.44;;;12.93;46.96
70976;BME280;58635;51.198;6.010;2023-05-03T06:10:02;102696.25;;;12.93;46.72
70976;BME280;58635;51.198;6.010;2023-05-03T06:12:28;102693.66;;;12.93;46.68
70976;BME280;58635;51.198;6.010;2023-05-03T06:14:54;102707.44;;;13.02;46.78
70976;BME280;58635;51.198;6.010;2023-05-03T06:17:19;102702.56;;;13.15;46.52
70976;BME280;58635;51.198;6.010;2023-05-03T06:19:47;102704.38;;;13.31;46.33
70976;BME280;58635;51.198;6.010;2023-05-03T06:22:14;102702.38;;;13.49;45.95
70976;BME280;58635;51.198;6.010;2023-05-03T06:24:39;102695.53;;;13.64;45.64
70976;BME280;58635;51.198;6.010;2023-05-03T06:27:05;102702.00;;;13.77;45.54
70976;BME280;58635;51.198;6.010;2023-05-03T06:29:30;102696.09;;;13.91;45.07
70976;BME280;58635;51.198;6.010;2023-05-03T06:31:56;102706.13;;;14.10;45.21
70976;BME280;58635;51.198;6.010;2023-05-03T06:34:22;102697.06;;;14.29;44.63
70976;BME280;58635;51.198;6.010;2023-05-03T06:36:48;102703.31;;;14.51;44.28
70976;BME280;58635;51.198;6.010;2023-05-03T06:39:14;102694.59;;;14.67;43.89
70976;BME280;58635;51.198;6.010;2023-05-03T06:41:40;102695.78;;;14.79;43.50
70976;BME280;58635;51.198;6.010;2023-05-03T06:44:05;102690.47;;;14.95;43.16
70976;BME280;58635;51.198;6.010;2023-05-03T06:46:34;102699.50;;;15.07;42.96
70976;BME280;58635;51.198;6.010;2023-05-03T06:48:59;102692.31;;;15.24;42.64
70976;BME280;58635;51.198;6.010;2023-05-03T06:51:26;102693.69;;;15.35;42.31
70976;BME280;58635;51.198;6.010;2023-05-03T06:53:53;102693.69;;;15.49;42.06
70976;BME280;58635;51.198;6.010;2023-05-03T06:56:20;102690.84;;;15.59;41.74
70976;BME280;58635;51.198;6.010;2023-05-03T06:58:46;102692.03;;;15.71;41.75
70976;BME280;58635;51.198;6.010;2023-05-03T07:01:11;102691.84;;;15.88;41.27
70976;BME280;58635;51.198;6.010;2023-05-03T07:03:36;102693.88;;;16.07;40.91
70976;BME280;58635;51.198;6.010;2023-05-03T07:06:02;102690.19;;;16.16;40.50
70976;BME280;58635;51.198;6.010;2023-05-03T07:08:28;102692.88;;;16.23;40.11
70976;BME280;58635;51.198;6.010;2023-05-03T07:10:53;102697.97;;;16.31;39.97
70976;BME280;58635;51.198;6.010;2023-05-03T07:13:19;102695.25;;;16.39;39.38
70976;BME280;58635;51.198;6.010;2023-05-03T07:15:44;102687.59;;;16.37;39.29
70976;BME280;58635;51.198;6.010;2023-05-03T07:18:10;102680.47;;;16.46;39.30
70976;BME280;58635;51.198;6.010;2023-05-03T07:20:35;102678.53;;;16.55;38.97
70976;BME280;58635;51.198;6.010;2023-05-03T07:23:01;102681.81;;;16.63;38.77
70976;BME280;58635;51.198;6.010;2023-05-03T07:25:26;102680.97;;;16.78;38.52
70976;BME280;58635;51.198;6.010;2023-05-03T07:27:52;102679.72;;;16.95;38.46
70976;BME280;58635;51.198;6.010;2023-05-03T07:30:17;102682.19;;;17.03;37.84
70976;BME280;58635;51.198;6.010;2023-05-03T07:32:43;102675.59;;;17.07;37.71
70976;BME280;58635;51.198;6.010;2023-05-03T07:35:08;102677.63;;;17.12;37.63
70976;BME280;58635;51.198;6.010;2023-05-03T07:37:34;102664.63;;;17.25;37.56
70976;BME280;58635;51.198;6.010;2023-05-03T07:39:59;102668.50;;;17.29;37.24
70976;BME280;58635;51.198;6.010;2023-05-03T07:42:25;102663.84;;;17.24;37.25
70976;BME280;58635;51.198;6.010;2023-05-03T07:44:51;102665.63;;;17.24;37.33
70976;BME280;58635;51.198;6.010;2023-05-03T07:47:16;102667.69;;;17.29;37.00
70976;BME280;58635;51.198;6.010;2023-05-03T07:49:42;102668.50;;;17.29;37.49
70976;BME280;58635;51.198;6.010;2023-05-03T07:52:08;102659.03;;;17.28;37.34
70976;BME280;58635;51.198;6.010;2023-05-03T07:54:33;102658.38;;;17.19;36.90
70976;BME280;58635;51.198;6.010;2023-05-03T07:56:59;102665.78;;;17.16;37.27
70976;BME280;58635;51.198;6.010;2023-05-03T07:59:24;102669.59;;;17.13;36.98
70976;BME280;58635;51.198;6.010;2023-05-03T08:01:50;102671.38;;;17.06;37.10
70976;BME280;58635;51.198;6.010;2023-05-03T08:04:15;102665.06;;;17.01;37.14
70976;BME280;58635;51.198;6.010;2023-05-03T08:06:41;102670.31;;;17.01;37.34
70976;BME280;58635;51.198;6.010;2023-05-03T08:09:07;102659.09;;;17.07;37.21
70976;BME280;58635;51.198;6.010;2023-05-03T08:11:33;102660.72;;;17.08;37.24
70976;BME280;58635;51.198;6.010;2023-05-03T08:13:58;102659.28;;;17.05;37.48
70976;BME280;58635;51.198;6.010;2023-05-03T08:16:24;102663.75;;;17.11;37.24
70976;BME280;58635;51.198;6.010;2023-05-03T08:18:50;102663.97;;;17.16;37.01
70976;BME280;58635;51.198;6.010;2023-05-03T08:21:15;102661.34;;;17.16;36.58
70976;BME280;58635;51.198;6.010;2023-05-03T08:23:41;102657.56;;;17.19;36.73
70976;BME280;58635;51.198;6.010;2023-05-03T08:26:07;102652.56;;;17.24;36.75
70976;BME280;58635;51.198;6.010;2023-05-03T08:28:34;102655.44;;;17.29;36.72
70976;BME280;58635;51.198;6.010;2023-05-03T08:30:59;102639.09;;;17.27;36.40
70976;BME280;58635;51.198;6.010;2023-05-03T08:33:27;102651.00;;;17.30;36.48
70976;BME280;58635;51.198;6.010;2023-05-03T08:35:53;102647.59;;;17.36;35.82
70976;BME280;58635;51.198;6.010;2023-05-03T08:38:18;102654.44;;;17.37;35.66
70976;BME280;58635;51.198;6.010;2023-05-03T08:40:47;102641.19;;;17.38;35.24
70976;BME280;58635;51.198;6.010;2023-05-03T08:43:19;102632.72;;;17.36;34.97
70976;BME280;58635;51.198;6.010;2023-05-03T08:45:44;102632.06;;;17.28;35.34
70976;BME280;58635;51.198;6.010;2023-05-03T08:48:12;102623.84;;;17.31;35.44
70976;BME280;58635;51.198;6.010;2023-05-03T08:50:39;102619.63;;;17.36;35.38
70976;BME280;58635;51.198;6.010;2023-05-03T08:53:09;102625.28;;;17.40;35.24
70976;BME280;58635;51.198;6.010;2023-05-03T08:55:36;102620.03;;;17.33;35.00
70976;BME280;58635;51.198;6.010;2023-05-03T08:58:05;102626.81;;;17.28;34.64
70976;BME280;58635;51.198;6.010;2023-05-03T09:00:34;102626.81;;;17.21;34.80
70976;BME280;58635;51.198;6.010;2023-05-03T09:03:00;102634.41;;;17.16;34.76
70976;BME280;58635;51.198;6.010;2023-05-03T09:08:06;102624.75;;;17.16;34.98
70976;BME280;58635;51.198;6.010;2023-05-03T09:10:41;102625.81;;;17.22;34.93
70976;BME280;58635;51.198;6.010;2023-05-03T09:13:08;102625.75;;;17.15;35.07
70976;BME280;58635;51.198;6.010;2023-05-03T09:15:34;102626.19;;;17.19;35.20
70976;BME280;58635;51.198;6.010;2023-05-03T09:20:34;102627.91;;;17.40;34.84
70976;BME280;58635;51.198;6.010;2023-05-03T09:23:01;102623.31;;;17.42;34.72
70976;BME280;58635;51.198;6.010;2023-05-03T09:25:43;102618.06;;;17.42;34.71
70976;BME280;58635;51.198;6.010;2023-05-03T09:28:08;102612.59;;;17.37;34.97
70976;BME280;58635;51.198;6.010;2023-05-03T09:30:34;102603.75;;;17.38;34.73
70976;BME280;58635;51.198;6.010;2023-05-03T09:32:59;102609.41;;;17.41;34.69
70976;BME280;58635;51.198;6.010;2023-05-03T09:35:25;102600.19;;;17.45;34.83
70976;BME280;58635;51.198;6.010;2023-05-03T09:37:50;102595.97;;;17.51;34.49
70976;BME280;58635;51.198;6.010;2023-05-03T09:40:16;102599.38;;;17.51;34.42
70976;BME280;58635;51.198;6.010;2023-05-03T09:43:09;102594.16;;;17.51;34.49
70976;BME280;58635;51.198;6.010;2023-05-03T09:45:38;102593.94;;;17.46;34.49
70976;BME280;58635;51.198;6.010;2023-05-03T09:48:04;102594.59;;;17.55;34.79
70976;BME280;58635;51.198;6.010;2023-05-03T09:50:32;102599.88;;;17.68;34.56
70976;BME280;58635;51.198;6.010;2023-05-03T09:53:05;102620.72;;;17.90;34.31
70976;BME280;58635;51.198;6.010;2023-05-03T09:55:35;102593.31;;;17.92;34.27
70976;BME280;58635;51.198;6.010;2023-05-03T09:58:02;102598.97;;;17.89;34.10
70976;BME280;58635;51.198;6.010;2023-05-03T10:00:36;102594.50;;;17.83;34.18
70976;BME280;58635;51.198;6.010;2023-05-03T10:03:09;102593.91;;;17.81;34.54
70976;BME280;58635;51.198;6.010;2023-05-03T10:05:55;102591.28;;;17.88;34.11
70976;BME280;58635;51.198;6.010;2023-05-03T10:09:02;102587.09;;;17.93;33.98
70976;BME280;58635;51.198;6.010;2023-05-03T10:11:23;102590.53;;;18.00;34.04
70976;BME280;58635;51.198;6.010;2023-05-03T10:13:50;102592.94;;;18.02;34.06
70976;BME280;58635;51.198;6.010;2023-05-03T10:16:20;102585.28;;;18.07;34.09
70976;BME280;58635;51.198;6.010;2023-05-03T10:19:02;102593.56;;;18.17;33.96
70976;BME280;58635;51.198;6.010;2023-05-03T10:21:45;102592.38;;;18.26;33.55
70976;BME280;58635;51.198;6.010;2023-05-03T10:24:14;102584.72;;;18.31;33.87
70976;BME280;58635;51.198;6.010;2023-05-03T10:26:44;102581.69;;;18.34;33.68
70976;BME280;58635;51.198;6.010;2023-05-03T10:31:58;102572.63;;;18.63;33.22
70976;BME280;58635;51.198;6.010;2023-05-03T10:34:24;102581.13;;;18.72;32.82
70976;BME280;58635;51.198;6.010;2023-05-03T10:36:54;102577.69;;;18.72;32.45
70976;BME280;58635;51.198;6.010;2023-05-03T10:39:20;102572.84;;;18.68;32.56
70976;BME280;58635;51.198;6.010;2023-05-03T10:42:07;102577.88;;;18.77;32.42
70976;BME280;58635;51.198;6.010;2023-05-03T10:44:49;102572.00;;;18.81;31.87
70976;BME280;58635;51.198;6.010;2023-05-03T10:47:17;102569.00;;;18.84;31.94
70976;BME280;58635;51.198;6.010;2023-05-03T10:49:43;102563.13;;;18.95;31.91
70976;BME280;58635;51.198;6.010;2023-05-03T10:55:12;102562.72;;;18.98;31.48
70976;BME280;58635;51.198;6.010;2023-05-03T10:57:41;102566.75;;;19.01;31.76
70976;BME280;58635;51.198;6.010;2023-05-03T11:00:22;102557.84;;;19.09;31.67
70976;BME280;58635;51.198;6.010;2023-05-03T11:05:38;102548.06;;;19.36;31.43
70976;BME280;58635;51.198;6.010;2023-05-03T11:10:32;102559.31;;;19.56;30.81
70976;BME280;58635;51.198;6.010;2023-05-03T11:12:58;102554.44;;;19.60;30.62
70976;BME280;58635;51.198;6.010;2023-05-03T11:15:24;102552.38;;;19.68;30.56
70976;BME280;58635;51.198;6.010;2023-05-03T11:17:50;102549.81;;;19.86;30.49
70976;BME280;58635;51.198;6.010;2023-05-03T11:20:15;102546.09;;;20.01;30.16
70976;BME280;58635;51.198;6.010;2023-05-03T11:22:41;102538.06;;;20.21;30.08
70976;BME280;58635;51.198;6.010;2023-05-03T11:25:06;102537.91;;;20.40;29.67
70976;BME280;58635;51.198;6.010;2023-05-03T11:27:32;102527.59;;;20.64;29.24
70976;BME280;58635;51.198;6.010;2023-05-03T11:29:57;102538.34;;;20.81;29.14
70976;BME280;58635;51.198;6.010;2023-05-03T11:32:27;102534.97;;;20.92;29.04
70976;BME280;58635;51.198;6.010;2023-05-03T11:34:52;102530.22;;;21.00;28.83
70976;BME280;58635;51.198;6.010;2023-05-03T11:37:18;102526.63;;;21.13;28.79
70976;BME280;58635;51.198;6.010;2023-05-03T11:39:43;102522.31;;;21.19;28.43
70976;BME280;58635;51.198;6.010;2023-05-03T11:42:09;102517.06;;;21.37;28.19
70976;BME280;58635;51.198;6.010;2023-05-03T11:44:34;102522.97;;;21.63;27.80
70976;BME280;58635;51.198;6.010;2023-05-03T11:47:02;102522.81;;;21.87;27.78
70976;BME280;58635;51.198;6.010;2023-05-03T11:49:27;102518.84;;;22.08;27.68
70976;BME280;58635;51.198;6.010;2023-05-03T11:51:54;102531.56;;;22.11;27.38
70976;BME280;58635;51.198;6.010;2023-05-03T11:54:22;102522.88;;;22.11;27.29
70976;BME280;58635;51.198;6.010;2023-05-03T11:56:49;102518.41;;;22.11;27.21
70976;BME280;58635;51.198;6.010;2023-05-03T11:59:15;102510.41;;;22.18;27.32
70976;BME280;58635;51.198;6.010;2023-05-03T12:01:41;102508.44;;;22.25;27.37
70976;BME280;58635;51.198;6.010;2023-05-03T12:04:07;102511.19;;;22.30;27.60
70976;BME280;58635;51.198;6.010;2023-05-03T12:06:34;102517.13;;;22.37;27.43
70976;BME280;58635;51.198;6.010;2023-05-03T12:09:00;102510.84;;;22.38;27.17
70976;BME280;58635;51.198;6.010;2023-05-03T12:11:27;102498.66;;;22.49;27.09
70976;BME280;58635;51.198;6.010;2023-05-03T12:13:57;102509.22;;;22.61;26.67
70976;BME280;58635;51.198;6.010;2023-05-03T12:16:23;102497.66;;;22.62;26.45
70976;BME280;58635;51.198;6.010;2023-05-03T12:18:57;102489.81;;;22.67;26.67
70976;BME280;58635;51.198;6.010;2023-05-03T12:21:46;102493.38;;;22.84;26.65
70976;BME280;58635;51.198;6.010;2023-05-03T12:24:12;102484.75;;;22.89;26.54
70976;BME280;58635;51.198;6.010;2023-05-03T12:26:42;102489.47;;;22.87;26.42
70976;BME280;58635;51.198;6.010;2023-05-03T12:29:08;102487.41;;;22.89;26.67
70976;BME280;58635;51.198;6.010;2023-05-03T12:31:33;102488.22;;;22.89;26.26
70976;BME280;58635;51.198;6.010;2023-05-03T12:33:58;102480.75;;;22.86;26.49
70976;BME280;58635;51.198;6.010;2023-05-03T12:36:24;102475.09;;;22.94;26.22
70976;BME280;58635;51.198;6.010;2023-05-03T12:38:49;102476.69;;;22.95;25.99
70976;BME280;58635;51.198;6.010;2023-05-03T12:41:15;102471.06;;;23.03;25.88
70976;BME280;58635;51.198;6.010;2023-05-03T12:43:41;102468.91;;;23.00;25.90
70976;BME280;58635;51.198;6.010;2023-05-03T12:46:07;102456.97;;;22.98;26.15
70976;BME280;58635;51.198;6.010;2023-05-03T12:48:32;102463.38;;;23.02;26.41
70976;BME280;58635;51.198;6.010;2023-05-03T12:50:58;102455.38;;;22.97;25.76
70976;BME280;58635;51.198;6.010;2023-05-03T12:53:24;102449.66;;;22.88;26.03
70976;BME280;58635;51.198;6.010;2023-05-03T12:55:50;102450.16;;;22.85;26.06
70976;BME280;58635;51.198;6.010;2023-05-03T12:58:16;102446.66;;;22.85;25.81
70976;BME280;58635;51.198;6.010;2023-05-03T13:00:41;102446.78;;;22.90;25.65
70976;BME280;58635;51.198;6.010;2023-05-03T13:03:07;102433.84;;;22.88;25.53
70976;BME280;58635;51.198;6.010;2023-05-03T13:05:33;102437.22;;;23.00;25.86
70976;BME280;58635;51.198;6.010;2023-05-03T13:07:59;102441.09;;;23.10;25.53
70976;BME280;58635;51.198;6.010;2023-05-03T13:10:25;102441.50;;;23.18;25.66